Calumet — WDE3568 — position and weather

sailwx.info

Track history (hours):
 
Tides and Currents Weather Stations Pressure Air Temp Water Temp Dewpoint Dewpoint Depression Visibility Wind Speed Wind Dir Waves Ship Positions

Calumet

Owner: Grand River Navigation Company, Traverse City, MI. More information available from US FCC via Universal Licensing System and Coast Guard Vessel Documentation Center.

Last reported at 2015-Aug-02 23:22 UTC. Time now 2015-Aug-03 13:08 UTC.
Position N 45°18' W 083°25'.

Length 192 m; draft 7.2 m.

Type: Cargo ship. MMSI: 367132630.

Date/timePositionNaut miles runAvg speedWind from/ knotsBaromVisibWave heightAir tempDewpointWater temp
2015-Aug-02 23:22N 45°18' W 083°25'1 0.2
2015-Aug-02 18:00N 45°18' W 083°24'0 0.0 170 / 81005.0 5.4 0.517.7
2015-Aug-02 15:00N 45°18' W 083°24'15 0.7 190 / 111005.7 22.7
2015-Aug-01 18:00N 45°30' W 083°36'2613.7 350 / 91011.8 5.4 0.522.2
2015-Aug-01 16:05N 45°39' W 084°11'612.0
2015-Aug-01 15:33N 45°41' W 084°20'1212.0
2015-Aug-01 14:33N 45°45' W 084°36'1212.1
2015-Aug-01 13:33N 45°49' W 084°52'1111.4
2015-Aug-01 12:33N 45°49' W 085°08'1211.5
2015-Aug-01 11:33N 45°38' W 085°16'1212.2
2015-Aug-01 10:33N 45°29' W 085°26'1212.2
2015-Aug-01 09:33N 45°19' W 085°37'1212.2
2015-Aug-01 08:33N 45°09' W 085°47'1212.1
2015-Aug-01 07:33N 44°60' W 085°59'1212.1
2015-Aug-01 06:33N 44°53' W 086°13'711.5
2015-Aug-01 06:00N 44°48' W 086°18'6911.6 260 / 111013.8 5.4 0.519.4
2015-Aug-01 00:00N 43°42' W 086°48'22838.1 260 / 141013.8 23.8
2015-Jul-31 18:00N 47°30' W 087°06'252 7.0 280 / 111015.9 0.526.6
2015-Jul-30 06:00N 43°18' W 086°54'3110.4 280 / 191016.2 5.4 1.021.6
2015-Jul-30 03:00N 43°48' W 086°42'3812.8 260 / 131015.5 22.7
2015-Jul-30 00:00N 44°24' W 086°24'2111.5 220 / 151012.5 22.7
2015-Jul-29 22:08N 44°45' W 086°18'711.4
2015-Jul-29 21:33N 44°51' W 086°14'1110.5
2015-Jul-29 20:33N 44°58' W 086°03'1110.7
2015-Jul-29 19:33N 45°06' W 085°52'1211.5
2015-Jul-29 18:33N 45°15' W 085°43'1017.9
2015-Jul-29 18:00N 45°24' W 085°36'2 5.1 190 / 191011.5 5.4 1.023.3
2015-Jul-29 17:33N 45°24' W 085°33'1211.7
2015-Jul-29 16:33N 45°34' W 085°23'1111.5
2015-Jul-29 15:33N 45°43' W 085°14'9 9.1
2015-Jul-29 14:33N 45°50' W 085°05'1111.2
2015-Jul-29 13:33N 45°49' W 084°49'1111.3
2015-Jul-29 12:33N 45°45' W 084°34'1111.2
2015-Jul-29 11:33N 45°42' W 084°19'1111.4
2015-Jul-29 10:33N 45°38' W 084°04'1211.8
2015-Jul-29 09:33N 45°33' W 083°49'1211.9
2015-Jul-29 08:33N 45°27' W 083°34'6611.8
2015-Jul-29 03:00N 44°30' W 082°48'1312.7 170 / 111018.2 24.4
2015-Jul-29 02:00N 44°18' W 082°42'2412.2 160 / 101017.2 24.9 22.2
2015-Jul-29 00:00N 43°54' W 082°36'140 7.8 160 / 51016.9 26.1
2015-Jul-28 06:00N 41°36' W 082°06'   070 / 71019.2 5.4 0.524.4
2015-Jul-25 18:00N 41°30' W 082°42'   230 / 161016.5 5.4 0.529.9
Track history (hours):
 
Tides and Currents Weather Stations Pressure Air Temp Water Temp Dewpoint Dewpoint Depression Visibility Wind Speed Wind Dir Waves Ship Positions

Calumet

Owner: Grand River Navigation Company, Traverse City, MI. More information available from US FCC via Universal Licensing System and Coast Guard Vessel Documentation Center.

Last reported at 2015-Aug-02 23:22 UTC. Time now 2015-Aug-03 13:08 UTC.
Position N 45°18' W 083°25'.

Length 192 m; draft 7.2 m.

Type: Cargo ship. MMSI: 367132630.

Date/timePositionNaut miles runAvg speedWind from/ knotsBaromVisibWave heightAir tempDewpointWater temp
2015-Aug-02 23:22N 45°18' W 083°25'1 0.2
2015-Aug-02 18:00N 45°18' W 083°24'0 0.0 170 / 81005.0 5.4 0.517.7
2015-Aug-02 15:00N 45°18' W 083°24'15 0.7 190 / 111005.7 22.7
2015-Aug-01 18:00N 45°30' W 083°36'2613.7 350 / 91011.8 5.4 0.522.2
2015-Aug-01 16:05N 45°39' W 084°11'612.0
2015-Aug-01 15:33N 45°41' W 084°20'1212.0
2015-Aug-01 14:33N 45°45' W 084°36'1212.1
2015-Aug-01 13:33N 45°49' W 084°52'1111.4
2015-Aug-01 12:33N 45°49' W 085°08'1211.5
2015-Aug-01 11:33N 45°38' W 085°16'1212.2
2015-Aug-01 10:33N 45°29' W 085°26'1212.2
2015-Aug-01 09:33N 45°19' W 085°37'1212.2
2015-Aug-01 08:33N 45°09' W 085°47'1212.1
2015-Aug-01 07:33N 44°60' W 085°59'1212.1
2015-Aug-01 06:33N 44°53' W 086°13'711.5
2015-Aug-01 06:00N 44°48' W 086°18'6911.6 260 / 111013.8 5.4 0.519.4
2015-Aug-01 00:00N 43°42' W 086°48'22838.1 260 / 141013.8 23.8
2015-Jul-31 18:00N 47°30' W 087°06'252 7.0 280 / 111015.9 0.526.6
2015-Jul-30 06:00N 43°18' W 086°54'3110.4 280 / 191016.2 5.4 1.021.6
2015-Jul-30 03:00N 43°48' W 086°42'3812.8 260 / 131015.5 22.7
2015-Jul-30 00:00N 44°24' W 086°24'2111.5 220 / 151012.5 22.7
2015-Jul-29 22:08N 44°45' W 086°18'711.4
2015-Jul-29 21:33N 44°51' W 086°14'1110.5
2015-Jul-29 20:33N 44°58' W 086°03'1110.7
2015-Jul-29 19:33N 45°06' W 085°52'1211.5
2015-Jul-29 18:33N 45°15' W 085°43'1017.9
2015-Jul-29 18:00N 45°24' W 085°36'2 5.1 190 / 191011.5 5.4 1.023.3
2015-Jul-29 17:33N 45°24' W 085°33'1211.7
2015-Jul-29 16:33N 45°34' W 085°23'1111.5
2015-Jul-29 15:33N 45°43' W 085°14'9 9.1
2015-Jul-29 14:33N 45°50' W 085°05'1111.2
2015-Jul-29 13:33N 45°49' W 084°49'1111.3
2015-Jul-29 12:33N 45°45' W 084°34'1111.2
2015-Jul-29 11:33N 45°42' W 084°19'1111.4
2015-Jul-29 10:33N 45°38' W 084°04'1211.8
2015-Jul-29 09:33N 45°33' W 083°49'1211.9
2015-Jul-29 08:33N 45°27' W 083°34'6611.8
2015-Jul-29 03:00N 44°30' W 082°48'1312.7 170 / 111018.2 24.4
2015-Jul-29 02:00N 44°18' W 082°42'2412.2 160 / 101017.2 24.9 22.2
2015-Jul-29 00:00N 43°54' W 082°36'140 7.8 160 / 51016.9 26.1
2015-Jul-28 06:00N 41°36' W 082°06'   070 / 71019.2 5.4 0.524.4
2015-Jul-25 18:00N 41°30' W 082°42'   230 / 161016.5 5.4 0.529.9

Dump ship's entire track history